M I D A S
Marine Information and Data Acquisition System
Tripno 2115 of the Zeeleeuw from 2011-06-06 06:29:49 to 2011-06-06 14:13:31
Back to CruiseResearch ActivitiesStationsMapUnderway DataData graphs

EquipmentUnitsComments
TimeDGPSUTC
LatitudeDGPSDM.mWGS84
LongitudeDGPSDM.mWGS84
SpeedMeteo Stationm/sRelative wind speed
DirectionMeteo StationdegRelative wind direction
TemperatureMeteo Stationdeg CelciusAir temperature
PressureMeteo StationPaAtmospheric pressure
HumidityMeteo Station%Relative humidity
Missing or incorrect values are displayed as -999
Metereological data collected by the RV Zeeleeuw from 2011-06-06 06:30:19 to 2011-06-06 14:23:41
                                                                                    Next 1000 lines
Time Latitude Longitude Speed Direction Temperature Pressure Humidity
2011-06-06 06:30:31 51°13.635 2°56.019 -999 24 15 100270 44
2011-06-06 06:30:35 51°13.635 2°56.019 -999 282 15 100270 44
2011-06-06 06:30:40 51°13.635 2°56.019 -999 250 15 100270 44
2011-06-06 06:30:46 51°13.635 2°56.019 -999 282 15 100270 44
2011-06-06 06:30:51 51°13.635 2°56.019 -999 248 15 100270 44
2011-06-06 06:30:55 51°13.635 2°56.019 -999 282 15 100270 44
2011-06-06 06:31:00 51°13.635 2°56.019 -999 248 15 100270 44
2011-06-06 06:31:05 51°13.635 2°56.019 -999 282 15 100270 44
2011-06-06 06:31:10 51°13.635 2°56.019 -999 246 15 100270 44
2011-06-06 06:31:15 51°13.635 2°56.019 -999 282 15 100270 44
2011-06-06 06:31:20 51°13.635 2°56.019 -999 258 15 100260 44
2011-06-06 06:31:25 51°13.635 2°56.019 -999 282 15 100260 44
2011-06-06 06:31:30 51°13.635 2°56.019 -999 259 15 100270 44
2011-06-06 06:31:35 51°13.635 2°56.019 -999 282 15 100270 44
2011-06-06 06:31:40 51°13.635 2°56.019 -999 24 15 100260 44
2011-06-06 06:31:45 51°13.635 2°56.019 -999 282 15 100260 44
2011-06-06 06:31:50 51°13.635 2°56.019 -999 249 15 100260 42
2011-06-06 06:31:55 51°13.635 2°56.019 -999 282 15 100260 42
2011-06-06 06:31:59 51°13.636 2°56.019 -999 24 15 100260 44
2011-06-06 06:32:05 51°13.636 2°56.019 -999 282 15 100260 44
2011-06-06 06:32:10 51°13.635 2°56.019 -999 24 15 100260 44
2011-06-06 06:32:15 51°13.636 2°56.019 -999 282 15 100260 44
2011-06-06 06:32:20 51°13.636 2°56.019 -999 251 15 100260 44
2011-06-06 06:32:25 51°13.635 2°56.019 -999 282 15 100260 44
2011-06-06 06:32:30 51°13.635 2°56.019 -999 24 15 100260 44
2011-06-06 06:32:35 51°13.635 2°56.019 -999 282 15 100260 44
2011-06-06 06:32:40 51°13.635 2°56.019 -999 24 15 100270 44
2011-06-06 06:32:45 51°13.634 2°56.019 -999 282 15 100270 44
2011-06-06 06:32:50 51°13.634 2°56.019 -999 248 15 100260 44
2011-06-06 06:32:55 51°13.633 2°56.019 -999 282 15 100260 44
2011-06-06 06:32:59 51°13.633 2°56.019 -999 24 15 100260 44
2011-06-06 06:33:05 51°13.633 2°56.019 -999 282 15 100260 44
2011-06-06 06:33:10 51°13.633 2°56.019 -999 258 15 100260 44
2011-06-06 06:33:15 51°13.633 2°56.019 -999 282 15 100260 44
2011-06-06 06:33:19 51°13.633 2°56.019 -999 24 15 100260 44
2011-06-06 06:33:25 51°13.633 2°56.018 -999 282 15 100260 44
2011-06-06 06:33:30 51°13.633 2°56.017 -999 255 15 100260 44
2011-06-06 06:33:35 51°13.634 2°56.014 -999 282 15 100260 44
2011-06-06 06:33:40 51°13.634 2°56.01 -999 29 15 100270 44
2011-06-06 06:33:45 51°13.635 2°56.005 -999 78 15 100270 44
2011-06-06 06:33:51 51°13.637 2°55.998 -999 265 15 100260 44
2011-06-06 06:33:56 51°13.639 2°55.991 -999 282 15 100260 44
2011-06-06 06:34:02 51°13.642 2°55.981 -999 263 15 100260 44
2011-06-06 06:34:07 51°13.644 2°55.972 -999 282 15 100260 44
2011-06-06 06:34:13 51°13.647 2°55.961 -999 26 15 100260 44
2011-06-06 06:34:19 51°13.65 2°55.95 -999 78 15 100260 44
2011-06-06 06:34:23 51°13.652 2°55.941 -999 24 15 100270 44
2011-06-06 06:34:29 51°13.656 2°55.929 -999 282 15 100270 44
2011-06-06 06:34:34 51°13.658 2°55.919 -999 24 15 100270 42
2011-06-06 06:34:39 51°13.661 2°55.909 -999 286 15 100270 42
2011-06-06 06:34:43 51°13.663 2°55.901 -999 27 15 100270 44
2011-06-06 06:34:49 51°13.666 2°55.889 -999 78 15 100270 44
2011-06-06 06:34:54 51°13.669 2°55.879 -999 265 15 100270 44
2011-06-06 06:34:59 51°13.671 2°55.869 -999 282 15 100270 44
2011-06-06 06:35:03 51°13.673 2°55.862 -999 264 15 100270 44
2011-06-06 06:35:09 51°13.675 2°55.85 -999 282 15 100270 44
2011-06-06 06:35:14 51°13.678 2°55.84 -999 262 15 100270 44
2011-06-06 06:35:19 51°13.68 2°55.831 -999 282 15 100270 44
2011-06-06 06:35:23 51°13.681 2°55.824 -999 262 15 100270 44
2011-06-06 06:35:29 51°13.683 2°55.814 -999 282 15 100270 44
2011-06-06 06:35:34 51°13.685 2°55.805 -999 268 15 100270 44
2011-06-06 06:35:39 51°13.687 2°55.797 -999 282 15 100270 44
2011-06-06 06:35:43 51°13.688 2°55.79 -999 267 15 100270 44
2011-06-06 06:35:49 51°13.69 2°55.78 -999 79 15 100270 44
2011-06-06 06:35:54 51°13.691 2°55.772 -999 270 15 100270 43
2011-06-06 06:35:59 51°13.692 2°55.764 -999 282 15 100270 43
2011-06-06 06:36:03 51°13.693 2°55.758 -999 266 15 100270 46
2011-06-06 06:36:09 51°13.695 2°55.749 -999 282 15 100270 46
2011-06-06 06:36:14 51°13.696 2°55.743 -999 256 15 100270 44
2011-06-06 06:36:19 51°13.696 2°55.739 -999 282 15 100270 44
2011-06-06 06:36:23 51°13.697 2°55.737 -999 24 15 100270 44
2011-06-06 06:36:29 51°13.697 2°55.735 -999 282 15 100270 44
2011-06-06 06:36:34 51°13.697 2°55.736 2 321 15 100270 44
2011-06-06 06:36:39 51°13.698 2°55.737 2.3 283 15 100270 44
2011-06-06 06:36:43 51°13.698 2°55.738 0.2 26 15 100270 44
2011-06-06 06:36:49 51°13.7 2°55.74 0.1 282 15 100270 44
2011-06-06 06:36:53 51°13.701 2°55.742 -999 319 15 100270 43
2011-06-06 06:36:59 51°13.702 2°55.743 -999 282 15 100270 43
2011-06-06 06:37:03 51°13.703 2°55.744 -999 323 15 100270 44
2011-06-06 06:37:08 51°13.703 2°55.744 -999 282 15 100270 44
2011-06-06 06:37:13 51°13.702 2°55.742 -999 323 15 100270 42
2011-06-06 06:37:18 51°13.701 2°55.741 -999 282 15 100270 42
2011-06-06 06:37:23 51°13.7 2°55.739 -999 325 15 100270 44
2011-06-06 06:37:27 51°13.698 2°55.737 -999 282 15 100270 44
2011-06-06 06:37:32 51°13.696 2°55.734 -999 332 15 100270 44
2011-06-06 06:37:38 51°13.693 2°55.731 -999 282 15 100270 44
2011-06-06 06:37:43 51°13.691 2°55.728 -999 338 15 100270 44
2011-06-06 06:37:49 51°13.689 2°55.726 1.9 280 15 100270 44
2011-06-06 06:37:54 51°13.688 2°55.725 2.3 341 15 100270 44
2011-06-06 06:37:59 51°13.688 2°55.725 3.3 284 15 100270 44
2011-06-06 06:38:03 51°13.689 2°55.725 2.3 343 15 100270 44
2011-06-06 06:38:09 51°13.692 2°55.725 3.4 347 15 100270 44
2011-06-06 06:38:14 51°13.695 2°55.725 2.9 348 14.9 100270 43
2011-06-06 06:38:19 51°13.698 2°55.725 1.8 359 14.9 100270 43
2011-06-06 06:38:23 51°13.701 2°55.725 3.9 358 14.9 100270 43
2011-06-06 06:38:29 51°13.707 2°55.723 4 277 14.9 100270 43
2011-06-06 06:38:34 51°13.713 2°55.721 3.7 348 14.9 100270 43
2011-06-06 06:38:39 51°13.718 2°55.719 3.7 348 14.9 100270 43
2011-06-06 06:38:43 51°13.723 2°55.716 2.2 347 14.9 100260 43
2011-06-06 06:38:48 51°13.73 2°55.713 4.5 285 14.9 100260 43
2011-06-06 06:38:53 51°13.737 2°55.709 3.8 350 14.9 100260 44
2011-06-06 06:38:58 51°13.744 2°55.704 3.1 284 14.9 100260 44
2011-06-06 06:39:03 51°13.752 2°55.699 4.5 344 14.9 100270 44
2011-06-06 06:39:07 51°13.758 2°55.695 4.1 285 14.9 100270 44
2011-06-06 06:39:12 51°13.766 2°55.689 3.9 346 14.9 100270 43
2011-06-06 06:39:17 51°13.774 2°55.683 4.3 281 14.9 100270 43
2011-06-06 06:39:22 51°13.783 2°55.677 6 347 14.9 100270 44
2011-06-06 06:39:27 51°13.791 2°55.67 5.3 280 14.9 100270 44
2011-06-06 06:39:31 51°13.798 2°55.664 4.7 345 14.9 100270 45
2011-06-06 06:39:36 51°13.807 2°55.657 6.1 278 14.9 100270 45
2011-06-06 06:39:41 51°13.816 2°55.65 6.5 347 14.9 100270 43
2011-06-06 06:39:46 51°13.826 2°55.643 6 279 14.9 100270 43
2011-06-06 06:39:51 51°13.836 2°55.635 6.5 348 14.9 100260 43
2011-06-06 06:39:55 51°13.844 2°55.629 6.9 350 14.9 100260 43
2011-06-06 06:40:00 51°13.854 2°55.622 5.7 343 14.9 100270 43
2011-06-06 06:40:05 51°13.864 2°55.615 5.5 346 14.9 100270 43
2011-06-06 06:40:10 51°13.875 2°55.607 6 344 14.9 100260 44
2011-06-06 06:40:15 51°13.886 2°55.6 5.6 282 14.9 100260 44
2011-06-06 06:40:19 51°13.895 2°55.594 5.7 345 14.9 100270 44
2011-06-06 06:40:25 51°13.909 2°55.584 6.4 286 14.9 100270 44
2011-06-06 06:40:30 51°13.92 2°55.575 8.9 344 14.9 100270 44
2011-06-06 06:40:35 51°13.931 2°55.566 8.4 283 14.9 100270 44
2011-06-06 06:40:40 51°13.943 2°55.558 6.3 349 14.9 100270 43
2011-06-06 06:40:45 51°13.954 2°55.549 3.6 285 14.9 100270 43
2011-06-06 06:40:50 51°13.966 2°55.541 6 343 14.9 100270 43
2011-06-06 06:40:55 51°13.977 2°55.532 6.3 280 14.9 100270 43
2011-06-06 06:41:00 51°13.989 2°55.523 6.5 341 14.9 100260 43
2011-06-06 06:41:05 51°14 2°55.514 6.3 279 14.9 100260 43
2011-06-06 06:41:10 51°14.012 2°55.505 6.4 345 14.9 100270 43
2011-06-06 06:41:15 51°14.023 2°55.496 6.9 347 14.9 100270 43
2011-06-06 06:41:20 51°14.035 2°55.487 7.9 343 14.9 100270 43
2011-06-06 06:41:25 51°14.046 2°55.478 7.6 348 14.9 100270 43
2011-06-06 06:41:30 51°14.057 2°55.468 9.2 351 14.9 100270 44
2011-06-06 06:41:35 51°14.069 2°55.46 6.1 350 14.9 100270 44
2011-06-06 06:41:40 51°14.08 2°55.451 5.9 352 14.9 100260 44
2011-06-06 06:41:45 51°14.091 2°55.442 6.2 285 14.9 100260 44
2011-06-06 06:41:50 51°14.102 2°55.434 6.4 347 14.9 100260 44
2011-06-06 06:41:55 51°14.113 2°55.426 6 280 14.9 100260 44
2011-06-06 06:42:00 51°14.124 2°55.418 7.9 349 14.9 100260 44
2011-06-06 06:42:05 51°14.135 2°55.411 7 279 14.9 100260 44
2011-06-06 06:42:10 51°14.146 2°55.403 6.7 344 14.9 100260 44
2011-06-06 06:42:15 51°14.157 2°55.396 7.9 352 14.9 100260 44
2011-06-06 06:42:19 51°14.165 2°55.39 9.5 348 14.9 100260 43
2011-06-06 06:42:25 51°14.178 2°55.381 9.1 348 14.9 100260 43
2011-06-06 06:42:30 51°14.188 2°55.374 8.1 345 14.9 100270 41
2011-06-06 06:42:35 51°14.199 2°55.366 6.7 349 14.9 100270 41
2011-06-06 06:42:40 51°14.209 2°55.358 7.4 352 14.9 100260 43
2011-06-06 06:42:45 51°14.219 2°55.35 8.7 352 14.9 100260 43
2011-06-06 06:42:50 51°14.229 2°55.342 7.7 350 14.9 100270 44
2011-06-06 06:42:55 51°14.239 2°55.334 8.3 351 14.9 100270 44
2011-06-06 06:43:00 51°14.249 2°55.325 8.8 353 14.9 100260 44
2011-06-06 06:43:05 51°14.258 2°55.316 7 352 14.9 100260 44
2011-06-06 06:43:11 51°14.27 2°55.304 6.3 354 14.9 100260 44
2011-06-06 06:43:15 51°14.277 2°55.296 7.6 278 14.9 100260 44
2011-06-06 06:43:19 51°14.285 2°55.289 8.5 353 14.8 100260 43
2011-06-06 06:43:25 51°14.296 2°55.277 8 353 14.8 100260 43
2011-06-06 06:43:30 51°14.304 2°55.266 8 352 14.8 100260 44
2011-06-06 06:43:35 51°14.313 2°55.256 7.9 357 14.8 100260 44
2011-06-06 06:43:40 51°14.322 2°55.246 9.6 351 14.9 100260 43
2011-06-06 06:43:45 51°14.331 2°55.235 8.3 354 14.9 100260 43
2011-06-06 06:43:51 51°14.341 2°55.222 9.1 353 14.9 100260 43
2011-06-06 06:43:55 51°14.348 2°55.214 7.5 356 14.9 100260 43
2011-06-06 06:44:00 51°14.357 2°55.203 8.5 354 14.9 100260 43
2011-06-06 06:44:05 51°14.365 2°55.192 8.1 356 14.9 100260 43
2011-06-06 06:44:10 51°14.374 2°55.18 7.8 356 14.9 100260 43
2011-06-06 06:44:15 51°14.383 2°55.169 7 356 14.9 100260 43
2011-06-06 06:44:20 51°14.392 2°55.158 8.9 355 14.9 100260 43
2011-06-06 06:44:25 51°14.401 2°55.147 7.1 356 14.9 100260 43
2011-06-06 06:44:30 51°14.41 2°55.136 7.1 355 14.8 100260 44
2011-06-06 06:44:35 51°14.419 2°55.125 8 355 14.8 100260 44
2011-06-06 06:44:39 51°14.426 2°55.116 6.9 352 14.8 100260 43
2011-06-06 06:44:45 51°14.436 2°55.103 6.9 355 14.8 100260 43
2011-06-06 06:44:50 51°14.445 2°55.092 7.1 355 14.8 100260 44
2011-06-06 06:44:55 51°14.454 2°55.08 8.2 356 14.8 100260 44
2011-06-06 06:45:00 51°14.462 2°55.069 7.8 356 14.8 100250 43
2011-06-06 06:45:05 51°14.47 2°55.057 9.8 355 14.8 100250 43
2011-06-06 06:45:10 51°14.478 2°55.046 7.6 356 14.8 100250 41
2011-06-06 06:45:15 51°14.487 2°55.034 10.2 356 14.8 100250 41
2011-06-06 06:45:20 51°14.497 2°55.023 10.2 353 14.8 100260 44
2011-06-06 06:45:25 51°14.507 2°55.011 8.2 354 14.8 100260 44
2011-06-06 06:45:30 51°14.518 2°54.999 7.4 354 14.8 100250 43
2011-06-06 06:45:35 51°14.529 2°54.987 10.8 356 14.8 100250 43
2011-06-06 06:45:40 51°14.54 2°54.973 9.2 354 14.8 100240 43
2011-06-06 06:45:45 51°14.551 2°54.958 7.5 353 14.8 100240 43
2011-06-06 06:45:50 51°14.563 2°54.943 9.9 351 14.8 100250 44
2011-06-06 06:45:55 51°14.575 2°54.927 9.6 349 14.8 100250 44
2011-06-06 06:45:59 51°14.586 2°54.916 11 348 14.8 100250 43
2011-06-06 06:46:05 51°14.602 2°54.898 10.1 280 14.8 100250 43
2011-06-06 06:46:10 51°14.616 2°54.883 11.5 347 14.8 100260 44
2011-06-06 06:46:15 51°14.629 2°54.869 9.8 278 14.8 100260 44
2011-06-06 06:46:20 51°14.644 2°54.853 8.6 346 14.8 100250 43
2011-06-06 06:46:25 51°14.658 2°54.838 9.7 347 14.8 100250 43
2011-06-06 06:46:30 51°14.673 2°54.822 8.5 348 14.8 100250 44
2011-06-06 06:46:35 51°14.687 2°54.808 9.5 349 14.8 100250 44
2011-06-06 06:46:40 51°14.7 2°54.794 9 348 14.7 100250 43
2011-06-06 06:46:45 51°14.714 2°54.78 10.4 349 14.7 100250 43
2011-06-06 06:46:50 51°14.727 2°54.767 11.5 348 14.7 100250 43
2011-06-06 06:46:55 51°14.74 2°54.754 10.7 281 14.7 100250 43
2011-06-06 06:47:00 51°14.753 2°54.741 8 350 14.7 100250 44
2011-06-06 06:47:05 51°14.766 2°54.727 7.9 349 14.7 100250 44
2011-06-06 06:47:10 51°14.779 2°54.714 11.3 349 14.7 100260 43
2011-06-06 06:47:15 51°14.792 2°54.7 9.8 349 14.7 100260 43
2011-06-06 06:47:20 51°14.806 2°54.686 9.4 350 14.7 100250 44
2011-06-06 06:47:25 51°14.82 2°54.672 9.9 279 14.7 100250 44
2011-06-06 06:47:30 51°14.834 2°54.657 11.9 348 14.7 100250 43
2011-06-06 06:47:35 51°14.848 2°54.642 9.5 348 14.7 100250 43
2011-06-06 06:47:40 51°14.863 2°54.627 11.2 347 14.7 100250 44
2011-06-06 06:47:45 51°14.877 2°54.612 10.2 350 14.7 100250 44
2011-06-06 06:47:50 51°14.892 2°54.597 9.4 350 14.7 100250 41
2011-06-06 06:47:55 51°14.907 2°54.581 9.3 351 14.7 100250 41
2011-06-06 06:48:00 51°14.921 2°54.564 10.4 350 14.7 100250 44
2011-06-06 06:48:05 51°14.936 2°54.547 9.9 350 14.7 100250 44
2011-06-06 06:48:10 51°14.951 2°54.531 11.5 351 14.7 100240 44
2011-06-06 06:48:15 51°14.966 2°54.514 10.5 351 14.7 100240 44
2011-06-06 06:48:20 51°14.981 2°54.498 11.3 348 14.7 100240 44
2011-06-06 06:48:25 51°14.995 2°54.481 11 349 14.7 100240 44
2011-06-06 06:48:30 51°15.011 2°54.464 9.4 348 14.7 100250 43
2011-06-06 06:48:35 51°15.026 2°54.448 8.7 349 14.7 100250 43
2011-06-06 06:48:40 51°15.041 2°54.432 10.9 349 14.7 100250 44
2011-06-06 06:48:45 51°15.056 2°54.416 12.5 349 14.7 100250 44
2011-06-06 06:48:50 51°15.071 2°54.399 11.7 348 14.7 100250 44
2011-06-06 06:48:55 51°15.086 2°54.384 11 349 14.7 100250 44
2011-06-06 06:49:00 51°15.102 2°54.368 8.7 348 14.7 100240 44
2011-06-06 06:49:05 51°15.117 2°54.351 9.8 348 14.7 100240 44
2011-06-06 06:49:10 51°15.133 2°54.337 8.4 348 14.7 100260 44
2011-06-06 06:49:15 51°15.148 2°54.32 11.4 349 14.7 100260 44
2011-06-06 06:49:20 51°15.163 2°54.303 10.1 348 14.7 100250 43
2011-06-06 06:49:25 51°15.178 2°54.285 9.1 349 14.7 100250 43
2011-06-06 06:49:30 51°15.192 2°54.267 9.4 349 14.7 100240 44
2011-06-06 06:49:35 51°15.206 2°54.248 10.8 353 14.7 100240 44
2011-06-06 06:49:40 51°15.22 2°54.23 8 352 14.7 100250 44
2011-06-06 06:49:45 51°15.234 2°54.21 9.5 351 14.7 100250 44
2011-06-06 06:49:51 51°15.251 2°54.188 10.1 352 14.7 100250 44
2011-06-06 06:49:55 51°15.262 2°54.173 8.6 350 14.7 100250 44
2011-06-06 06:50:00 51°15.276 2°54.155 11.5 353 14.7 100240 44
2011-06-06 06:50:05 51°15.29 2°54.136 8.9 349 14.7 100240 44
2011-06-06 06:50:10 51°15.304 2°54.118 9.6 349 14.7 100250 43
2011-06-06 06:50:15 51°15.318 2°54.099 9.3 350 14.7 100250 43
2011-06-06 06:50:20 51°15.332 2°54.08 11.3 350 14.6 100260 43
2011-06-06 06:50:25 51°15.346 2°54.062 9.6 351 14.6 100260 43
2011-06-06 06:50:30 51°15.361 2°54.045 12.5 350 14.7 100250 41
2011-06-06 06:50:35 51°15.375 2°54.027 10.5 350 14.7 100250 41
2011-06-06 06:50:40 51°15.389 2°54.01 9.2 351 14.7 100250 43
2011-06-06 06:50:45 51°15.404 2°53.992 8.2 353 14.7 100250 43
2011-06-06 06:50:50 51°15.417 2°53.973 11.6 354 14.7 100250 43
2011-06-06 06:50:55 51°15.431 2°53.954 8.9 354 14.7 100250 43
2011-06-06 06:51:00 51°15.444 2°53.935 9.4 352 14.6 100250 43
2011-06-06 06:51:05 51°15.458 2°53.916 8.4 352 14.6 100250 43
2011-06-06 06:51:10 51°15.471 2°53.896 10 351 14.7 100240 44
2011-06-06 06:51:15 51°15.484 2°53.877 11 349 14.7 100240 44
2011-06-06 06:51:20 51°15.497 2°53.856 10.1 351 14.7 100240 44
2011-06-06 06:51:25 51°15.51 2°53.836 10.6 353 14.7 100240 44
2011-06-06 06:51:30 51°15.523 2°53.816 10 351 14.7 100250 43
2011-06-06 06:51:35 51°15.536 2°53.796 9.1 353 14.7 100250 43
2011-06-06 06:51:40 51°15.549 2°53.776 10.4 350 14.7 100250 44
2011-06-06 06:51:45 51°15.562 2°53.755 9.3 351 14.7 100250 44
2011-06-06 06:51:50 51°15.575 2°53.735 8.7 353 14.6 100250 44
2011-06-06 06:51:55 51°15.588 2°53.715 9.8 349 14.6 100250 44
2011-06-06 06:52:00 51°15.601 2°53.695 9.5 348 14.6 100240 44
2011-06-06 06:52:05 51°15.614 2°53.676 11.7 350 14.6 100240 44
2011-06-06 06:52:10 51°15.628 2°53.657 8.1 350 14.6 100250 43
2011-06-06 06:52:15 51°15.642 2°53.638 9.6 347 14.6 100250 43
2011-06-06 06:52:19 51°15.653 2°53.623 11.8 351 14.6 100250 43
2011-06-06 06:52:25 51°15.669 2°53.601 8.7 352 14.6 100250 43
2011-06-06 06:52:30 51°15.683 2°53.583 8.3 348 14.6 100250 43
2011-06-06 06:52:35 51°15.698 2°53.565 11.2 349 14.6 100250 43
2011-06-06 06:52:40 51°15.711 2°53.548 11.7 347 14.6 100250 43
2011-06-06 06:52:45 51°15.726 2°53.531 10.3 352 14.6 100250 43
2011-06-06 06:52:50 51°15.74 2°53.514 9.2 350 14.6 100240 44
2011-06-06 06:52:55 51°15.755 2°53.498 10.3 350 14.6 100240 44
2011-06-06 06:53:00 51°15.77 2°53.483 8.6 350 14.6 100250 44
2011-06-06 06:53:05 51°15.785 2°53.467 9.6 349 14.6 100250 44
2011-06-06 06:53:10 51°15.801 2°53.453 9.7 349 14.6 100240 42
2011-06-06 06:53:15 51°15.816 2°53.438 11.6 349 14.6 100240 42
2011-06-06 06:53:20 51°15.831 2°53.425 11.9 349 14.6 100250 44
2011-06-06 06:53:26 51°15.85 2°53.409 11.4 350 14.6 100250 44
2011-06-06 06:53:31 51°15.866 2°53.396 9.4 347 14.6 100250 44
2011-06-06 06:53:35 51°15.879 2°53.386 9.5 348 14.6 100250 44
2011-06-06 06:53:39 51°15.891 2°53.376 9.2 348 14.6 100260 43
2011-06-06 06:53:46 51°15.914 2°53.358 12 350 14.6 100260 43
2011-06-06 06:53:51 51°15.93 2°53.346 9.9 348 14.6 100250 43
2011-06-06 06:53:55 51°15.942 2°53.336 9.6 346 14.6 100250 43
2011-06-06 06:54:00 51°15.958 2°53.324 12.1 349 14.6 100260 44
2011-06-06 06:54:05 51°15.975 2°53.311 12.1 349 14.6 100260 44
2011-06-06 06:54:10 51°15.991 2°53.299 10.5 349 14.6 100240 43
2011-06-06 06:54:15 51°16.007 2°53.286 10.8 350 14.6 100240 43
2011-06-06 06:54:20 51°16.023 2°53.273 8.5 348 14.6 100250 43
2011-06-06 06:54:25 51°16.038 2°53.26 4.4 349 14.6 100250 43
2011-06-06 06:54:30 51°16.055 2°53.248 12.6 346 14.6 100250 44
2011-06-06 06:54:35 51°16.071 2°53.236 9.9 347 14.6 100250 44
2011-06-06 06:54:40 51°16.087 2°53.223 10.9 347 14.6 100240 43
2011-06-06 06:54:45 51°16.103 2°53.21 12.3 349 14.6 100240 43
2011-06-06 06:54:50 51°16.119 2°53.198 13 348 14.6 100260 44
2011-06-06 06:54:55 51°16.135 2°53.184 13 349 14.6 100260 44
2011-06-06 06:55:00 51°16.15 2°53.17 12.3 348 14.6 100240 44
2011-06-06 06:55:05 51°16.166 2°53.156 10.7 348 14.6 100240 44
2011-06-06 06:55:10 51°16.181 2°53.142 12.7 347 14.6 100260 43
2011-06-06 06:55:15 51°16.197 2°53.128 10 348 14.6 100260 43
2011-06-06 06:55:20 51°16.213 2°53.113 9.3 348 14.5 100260 43
2011-06-06 06:55:26 51°16.232 2°53.096 9.8 348 14.5 100260 43
2011-06-06 06:55:30 51°16.244 2°53.084 11.3 348 14.5 100250 44
2011-06-06 06:55:35 51°16.259 2°53.07 10.9 349 14.5 100250 44
2011-06-06 06:55:40 51°16.275 2°53.055 8.4 348 14.5 100240 43
2011-06-06 06:55:45 51°16.291 2°53.041 11.2 347 14.5 100240 43
2011-06-06 06:55:50 51°16.306 2°53.027 9.6 348 14.5 100250 41
2011-06-06 06:55:55 51°16.322 2°53.012 8.5 347 14.5 100250 41
2011-06-06 06:56:00 51°16.338 2°52.998 11.5 349 14.5 100230 44
2011-06-06 06:56:05 51°16.354 2°52.984 9.4 348 14.5 100230 44
2011-06-06 06:56:10 51°16.37 2°52.97 11.1 348 14.5 100260 44
2011-06-06 06:56:15 51°16.386 2°52.957 10.1 349 14.5 100260 44
2011-06-06 06:56:20 51°16.402 2°52.944 9.6 345 14.5 100250 43
2011-06-06 06:56:25 51°16.418 2°52.931 9.3 347 14.5 100250 43
2011-06-06 06:56:30 51°16.435 2°52.919 11.6 348 14.5 100250 43
2011-06-06 06:56:35 51°16.451 2°52.906 11.6 350 14.5 100250 43
2011-06-06 06:56:40 51°16.467 2°52.893 11.2 351 14.5 100260 43
2011-06-06 06:56:45 51°16.483 2°52.88 12.6 348 14.5 100260 43
2011-06-06 06:56:51 51°16.503 2°52.864 12.4 350 14.5 100250 44
2011-06-06 06:56:55 51°16.516 2°52.853 9.9 350 14.5 100250 44
2011-06-06 06:57:00 51°16.532 2°52.84 10.7 349 14.5 100240 43
2011-06-06 06:57:05 51°16.548 2°52.826 11.4 348 14.5 100240 43
2011-06-06 06:57:10 51°16.563 2°52.812 10.5 348 14.5 100250 43
2011-06-06 06:57:15 51°16.579 2°52.798 11.6 349 14.5 100250 43
2011-06-06 06:57:19 51°16.592 2°52.787 10.3 348 14.5 100240 44
2011-06-06 06:57:25 51°16.61 2°52.769 11.1 349 14.5 100240 44
2011-06-06 06:57:30 51°16.626 2°52.755 12.8 350 14.5 100250 43
2011-06-06 06:57:35 51°16.642 2°52.74 9.4 350 14.5 100250 43
2011-06-06 06:57:40 51°16.658 2°52.726 8.6 349 14.5 100260 44
2011-06-06 06:57:45 51°16.673 2°52.712 11.8 349 14.5 100260 44
2011-06-06 06:57:50 51°16.689 2°52.697 11.6 350 14.5 100250 44
2011-06-06 06:57:55 51°16.705 2°52.683 12 350 14.5 100250 44
2011-06-06 06:58:00 51°16.72 2°52.669 9.2 347 14.5 100240 43
2011-06-06 06:58:06 51°16.74 2°52.655 10.2 345 14.5 100240 43
2011-06-06 06:58:10 51°16.753 2°52.647 12.6 344 14.5 100250 43
2011-06-06 06:58:15 51°16.769 2°52.637 12.1 346 14.5 100250 43
2011-06-06 06:58:20 51°16.786 2°52.629 9.5 344 14.5 100260 43
2011-06-06 06:58:25 51°16.803 2°52.621 12.8 344 14.5 100260 43
2011-06-06 06:58:30 51°16.82 2°52.615 12.8 345 14.5 100250 42
2011-06-06 06:58:35 51°16.837 2°52.609 12.8 344 14.5 100250 42
2011-06-06 06:58:40 51°16.854 2°52.604 12.7 344 14.5 100260 43
2011-06-06 06:58:45 51°16.871 2°52.599 11.1 344 14.5 100260 43
2011-06-06 06:58:50 51°16.888 2°52.595 11.1 343 14.5 100240 43
2011-06-06 06:58:55 51°16.905 2°52.59 5.3 343 14.5 100240 43
2011-06-06 06:59:00 51°16.923 2°52.586 11.3 343 14.5 100260 43
2011-06-06 06:59:05 51°16.94 2°52.582 8.9 343 14.5 100260 43
2011-06-06 06:59:11 51°16.961 2°52.578 11.1 341 14.5 100260 43
2011-06-06 06:59:15 51°16.975 2°52.575 12.3 343 14.5 100260 43
2011-06-06 06:59:20 51°16.992 2°52.571 9.4 344 14.4 100250 43
2011-06-06 06:59:25 51°17.009 2°52.567 11.7 343 14.4 100250 43
2011-06-06 06:59:30 51°17.026 2°52.562 10.8 341 14.5 100250 43
2011-06-06 06:59:35 51°17.043 2°52.557 9.8 343 14.5 100250 43
2011-06-06 06:59:40 51°17.061 2°52.553 9.8 345 14.5 100240 44
2011-06-06 06:59:45 51°17.078 2°52.548 12.4 345 14.5 100240 44
2011-06-06 06:59:50 51°17.095 2°52.542 10.7 344 14.4 100250 43
2011-06-06 06:59:55 51°17.112 2°52.537 12.2 343 14.4 100250 43
2011-06-06 06:59:59 51°17.126 2°52.533 12.3 344 14.4 100250 43
2011-06-06 07:00:05 51°17.147 2°52.525 12.3 344 14.4 100250 43
2011-06-06 07:00:10 51°17.163 2°52.519 11.8 345 14.4 100250 44
2011-06-06 07:00:15 51°17.18 2°52.512 9.8 347 14.4 100250 44
2011-06-06 07:00:20 51°17.197 2°52.505 9.6 345 14.5 100260 44
2011-06-06 07:00:25 51°17.214 2°52.498 11 343 14.5 100260 44
2011-06-06 07:00:30 51°17.231 2°52.492 10.6 344 14.5 100260 44
2011-06-06 07:00:35 51°17.248 2°52.485 12.7 343 14.5 100260 44
2011-06-06 07:00:40 51°17.265 2°52.479 10 344 14.5 100250 43
2011-06-06 07:00:45 51°17.282 2°52.472 12.7 344 14.5 100250 43
2011-06-06 07:00:50 51°17.299 2°52.466 9.1 344 14.4 100250 43
2011-06-06 07:00:55 51°17.316 2°52.46 8.8 341 14.4 100250 43
2011-06-06 07:01:00 51°17.334 2°52.454 9.5 341 14.4 100250 44
2011-06-06 07:01:05 51°17.351 2°52.449 12.1 341 14.4 100250 44
2011-06-06 07:01:10 51°17.368 2°52.445 10.5 341 14.4 100250 42
2011-06-06 07:01:15 51°17.386 2°52.44 11.5 346 14.4 100250 42
2011-06-06 07:01:20 51°17.403 2°52.436 11.5 344 14.4 100250 43
2011-06-06 07:01:25 51°17.421 2°52.431 11.6 343 14.4 100250 43
2011-06-06 07:01:30 51°17.438 2°52.427 12.7 343 14.4 100260 43
2011-06-06 07:01:35 51°17.455 2°52.422 11.3 345 14.4 100260 43
2011-06-06 07:01:40 51°17.472 2°52.418 11.1 346 14.5 100250 43
2011-06-06 07:01:45 51°17.489 2°52.413 10 346 14.5 100250 43
2011-06-06 07:01:50 51°17.506 2°52.407 12.2 346 14.5 100260 43
2011-06-06 07:01:55 51°17.523 2°52.402 10.7 342 14.5 100260 43
2011-06-06 07:02:00 51°17.54 2°52.397 10 342 14.4 100250 43
2011-06-06 07:02:05 51°17.557 2°52.392 9.5 343 14.4 100250 43
2011-06-06 07:02:10 51°17.574 2°52.387 10.8 343 14.4 100260 43
2011-06-06 07:02:15 51°17.591 2°52.383 11.1 342 14.4 100260 43
2011-06-06 07:02:20 51°17.608 2°52.377 12.3 342 14.4 100260 43
2011-06-06 07:02:25 51°17.625 2°52.373 10.7 341 14.4 100260 43
2011-06-06 07:02:30 51°17.642 2°52.368 12.9 342 14.4 100250 44
2011-06-06 07:02:35 51°17.659 2°52.363 11.8 344 14.4 100250 44
2011-06-06 07:02:39 51°17.672 2°52.359 10.5 343 14.4 100250 43
2011-06-06 07:02:45 51°17.693 2°52.353 9.7 343 14.4 100250 43
2011-06-06 07:02:50 51°17.71 2°52.348 10.9 344 14.4 100250 44
2011-06-06 07:02:55 51°17.727 2°52.343 8.6 345 14.4 100250 44
2011-06-06 07:03:00 51°17.744 2°52.338 9.2 344 14.4 100260 43
2011-06-06 07:03:05 51°17.761 2°52.333 11.7 344 14.4 100260 43
2011-06-06 07:03:10 51°17.778 2°52.328 12.7 345 14.4 100260 43
2011-06-06 07:03:15 51°17.794 2°52.323 11.3 343 14.4 100260 43
2011-06-06 07:03:20 51°17.811 2°52.317 11.7 344 14.4 100260 42
2011-06-06 07:03:25 51°17.828 2°52.311 10.6 345 14.4 100260 42
2011-06-06 07:03:31 51°17.848 2°52.303 10.5 344 14.4 100260 43
2011-06-06 07:03:35 51°17.862 2°52.298 11.8 344 14.4 100260 43
2011-06-06 07:03:40 51°17.879 2°52.29 11.2 345 14.4 100260 43
2011-06-06 07:03:45 51°17.895 2°52.283 9.1 345 14.4 100260 43
2011-06-06 07:03:50 51°17.912 2°52.275 12.8 345 14.3 100260 41
2011-06-06 07:03:55 51°17.929 2°52.268 12.9 282 14.3 100260 41
2011-06-06 07:04:00 51°17.946 2°52.26 10.2 343 14.4 100250 44
2011-06-06 07:04:05 51°17.963 2°52.252 13.2 341 14.4 100250 44
2011-06-06 07:04:10 51°17.979 2°52.245 13.5 343 14.3 100260 43
2011-06-06 07:04:15 51°17.996 2°52.238 11.4 343 14.3 100260 43
2011-06-06 07:04:20 51°18.013 2°52.23 10.9 344 14.3 100250 43
2011-06-06 07:04:25 51°18.03 2°52.223 10 342 14.3 100250 43
2011-06-06 07:04:30 51°18.047 2°52.217 10.7 342 14.4 100260 43
2011-06-06 07:04:35 51°18.064 2°52.21 11.5 343 14.4 100260 43
2011-06-06 07:04:40 51°18.081 2°52.204 11.9 343 14.3 100250 43
2011-06-06 07:04:46 51°18.101 2°52.196 11.1 344 14.3 100250 43
2011-06-06 07:04:50 51°18.115 2°52.19 12.2 342 14.4 100260 44
2011-06-06 07:04:55 51°18.132 2°52.183 5.4 342 14.4 100260 44
2011-06-06 07:05:00 51°18.149 2°52.176 9.4 343 14.4 100260 43
2011-06-06 07:05:05 51°18.166 2°52.169 10.8 344 14.4 100260 43
2011-06-06 07:05:10 51°18.183 2°52.162 9.8 343 14.3 100260 43
2011-06-06 07:05:15 51°18.199 2°52.155 12.6 345 14.3 100260 43
2011-06-06 07:05:19 51°18.213 2°52.149 11.1 344 14.3 100260 43
2011-06-06 07:05:25 51°18.232 2°52.139 13 345 14.3 100260 43
2011-06-06 07:05:30 51°18.249 2°52.132 9.4 344 14.4 100250 44
2011-06-06 07:05:35 51°18.266 2°52.125 9.6 344 14.4 100250 44
2011-06-06 07:05:40 51°18.283 2°52.119 10.5 345 14.4 100260 43
2011-06-06 07:05:45 51°18.3 2°52.113 11.7 342 14.4 100260 43
2011-06-06 07:05:50 51°18.317 2°52.107 11.6 344 14.4 100260 43
2011-06-06 07:05:55 51°18.333 2°52.101 10.4 285 14.4 100260 43
2011-06-06 07:06:00 51°18.351 2°52.096 8.8 342 14.4 100250 43
2011-06-06 07:06:05 51°18.367 2°52.091 12.5 343 14.4 100250 43
2011-06-06 07:06:10 51°18.384 2°52.086 10.8 342 14.4 100260 43
2011-06-06 07:06:15 51°18.402 2°52.081 10.1 347 14.4 100260 43
2011-06-06 07:06:20 51°18.419 2°52.076 13.2 344 14.4 100260 44
2011-06-06 07:06:25 51°18.436 2°52.071 10.1 344 14.4 100260 44
2011-06-06 07:06:30 51°18.453 2°52.065 11.3 343 14.4 100270 42
2011-06-06 07:06:35 51°18.47 2°52.059 12.5 343 14.4 100270 42
2011-06-06 07:06:40 51°18.487 2°52.053 9.8 343 14.4 100250 43
2011-06-06 07:06:45 51°18.504 2°52.046 12.2 342 14.4 100250 43
2011-06-06 07:06:50 51°18.52 2°52.04 12.9 342 14.4 100250 43
2011-06-06 07:06:55 51°18.537 2°52.032 10.3 343 14.4 100250 43
2011-06-06 07:07:00 51°18.554 2°52.024 13.4 343 14.4 100250 43
2011-06-06 07:07:05 51°18.571 2°52.017 9.4 344 14.4 100250 43
2011-06-06 07:07:10 51°18.588 2°52.008 11.4 344 14.4 100260 43
2011-06-06 07:07:15 51°18.604 2°52 11.9 344 14.4 100260 43
2011-06-06 07:07:20 51°18.621 2°51.993 12.9 342 14.4 100260 44
2011-06-06 07:07:26 51°18.641 2°51.984 10.2 342 14.4 100260 44
2011-06-06 07:07:30 51°18.654 2°51.978 12.3 343 14.4 100250 43
2011-06-06 07:07:35 51°18.671 2°51.971 10.6 342 14.4 100250 43
2011-06-06 07:07:40 51°18.688 2°51.964 11 344 14.3 100270 43
2011-06-06 07:07:45 51°18.705 2°51.957 10.9 342 14.3 100270 43
2011-06-06 07:07:50 51°18.722 2°51.95 11.4 343 14.3 100260 43
2011-06-06 07:07:55 51°18.738 2°51.944 9.7 283 14.3 100260 43
2011-06-06 07:07:59 51°18.752 2°51.939 10 343 14.3 100260 43
2011-06-06 07:08:05 51°18.772 2°51.931 9.6 344 14.3 100260 43
2011-06-06 07:08:10 51°18.789 2°51.925 9 343 14.3 100260 43
2011-06-06 07:08:15 51°18.806 2°51.919 10.6 342 14.3 100260 43
2011-06-06 07:08:20 51°18.823 2°51.914 10.1 343 14.3 100260 43
2011-06-06 07:08:25 51°18.84 2°51.909 12.2 342 14.3 100260 43
2011-06-06 07:08:30 51°18.857 2°51.903 12 342 14.3 100250 44
2011-06-06 07:08:35 51°18.874 2°51.898 11.2 341 14.3 100250 44
2011-06-06 07:08:40 51°18.891 2°51.893 12.4 341 14.3 100260 43
2011-06-06 07:08:45 51°18.908 2°51.888 10.7 343 14.3 100260 43
2011-06-06 07:08:50 51°18.925 2°51.882 11.5 342 14.3 100270 43
2011-06-06 07:08:55 51°18.942 2°51.877 11.6 344 14.3 100270 43
2011-06-06 07:09:00 51°18.959 2°51.871 9.9 343 14.3 100260 43
2011-06-06 07:09:05 51°18.976 2°51.865 12.3 344 14.3 100260 43
2011-06-06 07:09:10 51°18.993 2°51.858 9.8 343 14.3 100250 42
2011-06-06 07:09:15 51°19.01 2°51.852 9.3 344 14.3 100250 42
2011-06-06 07:09:20 51°19.027 2°51.845 11 346 14.3 100260 42
2011-06-06 07:09:25 51°19.044 2°51.838 10 345 14.3 100260 42
2011-06-06 07:09:30 51°19.061 2°51.831 10.6 344 14.3 100270 43
2011-06-06 07:09:35 51°19.078 2°51.824 14.1 344 14.3 100270 43
2011-06-06 07:09:40 51°19.095 2°51.816 10.5 343 14.3 100260 43
2011-06-06 07:09:45 51°19.111 2°51.809 10.6 344 14.3 100260 43
2011-06-06 07:09:50 51°19.128 2°51.801 9.6 344 14.3 100260 44
2011-06-06 07:09:55 51°19.145 2°51.794 9.9 280 14.3 100260 44
2011-06-06 07:10:00 51°19.161 2°51.786 10.7 342 14.3 100260 43
2011-06-06 07:10:05 51°19.178 2°51.779 11.9 344 14.3 100260 43
2011-06-06 07:10:11 51°19.198 2°51.77 11.1 342 14.3 100260 44
2011-06-06 07:10:15 51°19.211 2°51.764 12.3 342 14.3 100260 44
2011-06-06 07:10:20 51°19.228 2°51.757 12.8 341 14.3 100260 44
2011-06-06 07:10:25 51°19.245 2°51.75 11.9 343 14.3 100260 44
2011-06-06 07:10:30 51°19.261 2°51.743 11 343 14.3 100250 43
2011-06-06 07:10:35 51°19.277 2°51.735 9.8 342 14.3 100250 43
2011-06-06 07:10:39 51°19.29 2°51.73 13 342 14.3 100260 43
2011-06-06 07:10:45 51°19.309 2°51.721 10.4 343 14.3 100260 43
2011-06-06 07:10:50 51°19.326 2°51.715 9.1 342 14.3 100250 43
2011-06-06 07:10:55 51°19.343 2°51.709 10.6 341 14.3 100250 43
2011-06-06 07:11:00 51°19.359 2°51.703 10.4 341 14.2 100270 42
2011-06-06 07:11:05 51°19.377 2°51.697 10.5 338 14.2 100270 42
2011-06-06 07:11:10 51°19.394 2°51.691 13.2 341 14.3 100260 44
2011-06-06 07:11:15 51°19.411 2°51.685 10.5 341 14.3 100260 44
2011-06-06 07:11:20 51°19.428 2°51.68 10.9 342 14.3 100270 43
2011-06-06 07:11:26 51°19.449 2°51.672 11.1 341 14.3 100270 43
2011-06-06 07:11:30 51°19.462 2°51.668 13 340 14.3 100270 44
2011-06-06 07:11:35 51°19.479 2°51.662 9.3 342 14.3 100270 44
2011-06-06 07:11:40 51°19.497 2°51.656 11.1 342 14.3 100260 43
2011-06-06 07:11:45 51°19.514 2°51.65 9.7 343 14.3 100260 43
2011-06-06 07:11:50 51°19.531 2°51.644 10.7 343 14.2 100260 42
2011-06-06 07:11:55 51°19.548 2°51.638 11.8 285 14.2 100260 42
2011-06-06 07:12:00 51°19.565 2°51.632 5.4 342 14.2 100260 43
2011-06-06 07:12:05 51°19.582 2°51.626 12.7 342 14.2 100260 43
2011-06-06 07:12:10 51°19.599 2°51.62 11 342 14.3 100260 43
2011-06-06 07:12:15 51°19.616 2°51.614 11.4 343 14.3 100260 43
2011-06-06 07:12:20 51°19.633 2°51.608 12.7 343 14.3 100250 44
2011-06-06 07:12:25 51°19.65 2°51.602 12 342 14.3 100250 44
2011-06-06 07:12:30 51°19.667 2°51.595 11.4 343 14.2 100260 42
2011-06-06 07:12:35 51°19.684 2°51.589 10.2 344 14.2 100260 42
2011-06-06 07:12:40 51°19.701 2°51.582 9.4 344 14.2 100260 43
2011-06-06 07:12:45 51°19.719 2°51.576 12.3 341 14.2 100260 43
2011-06-06 07:12:50 51°19.736 2°51.57 11.3 344 14.2 100250 43
2011-06-06 07:12:55 51°19.753 2°51.563 12 344 14.2 100250 43
2011-06-06 07:13:00 51°19.77 2°51.555 11 343 14.2 100270 43
2011-06-06 07:13:05 51°19.786 2°51.548 11.6 344 14.2 100270 43
2011-06-06 07:13:10 51°19.803 2°51.54 12 344 14.2 100260 42
2011-06-06 07:13:15 51°19.82 2°51.532 10.2 344 14.2 100260 42
2011-06-06 07:13:19 51°19.834 2°51.525 10.6 342 14.2 100270 43
2011-06-06 07:13:25 51°19.854 2°51.516 11 341 14.2 100270 43
2011-06-06 07:13:30 51°19.871 2°51.509 12.1 342 14.2 100260 43
2011-06-06 07:13:35 51°19.888 2°51.501 12.2 344 14.2 100260 43
2011-06-06 07:13:40 51°19.905 2°51.495 13.3 344 14.2 100260 43
2011-06-06 07:13:45 51°19.922 2°51.487 10.6 346 14.2 100260 43
2011-06-06 07:13:50 51°19.939 2°51.48 11.7 346 14.2 100260 43
2011-06-06 07:13:55 51°19.956 2°51.473 9.7 278 14.2 100260 43
2011-06-06 07:14:00 51°19.973 2°51.466 12.7 344 14.2 100260 43
2011-06-06 07:14:05 51°19.99 2°51.459 10.3 343 14.2 100260 43
2011-06-06 07:14:10 51°20.008 2°51.452 12.1 345 14.2 100250 43
2011-06-06 07:14:15 51°20.025 2°51.445 10.4 345 14.2 100250 43
2011-06-06 07:14:20 51°20.041 2°51.438 12.5 341 14.2 100260 43
2011-06-06 07:14:25 51°20.058 2°51.431 12 343 14.2 100260 43
2011-06-06 07:14:30 51°20.074 2°51.424 10 344 14.2 100250 42
2011-06-06 07:14:35 51°20.091 2°51.418 10.4 343 14.2 100250 42
2011-06-06 07:14:40 51°20.108 2°51.412 11.8 342 14.2 100270 43
2011-06-06 07:14:45 51°20.125 2°51.405 13.5 344 14.2 100270 43
2011-06-06 07:14:50 51°20.143 2°51.399 11.7 343 14.2 100270 43
2011-06-06 07:14:55 51°20.16 2°51.392 5 343 14.2 100270 43
2011-06-06 07:15:00 51°20.177 2°51.386 13.2 344 14.2 100260 42
2011-06-06 07:15:05 51°20.194 2°51.379 11.4 341 14.2 100260 42
2011-06-06 07:15:10 51°20.212 2°51.372 11.1 342 14.2 100260 43
2011-06-06 07:15:15 51°20.229 2°51.366 12.2 342 14.2 100260 43
2011-06-06 07:15:20 51°20.246 2°51.36 10 341 14.2 100260 43
2011-06-06 07:15:25 51°20.263 2°51.354 10.7 344 14.2 100260 43
2011-06-06 07:15:30 51°20.28 2°51.348 10.6 344 14.2 100260 43
2011-06-06 07:15:35 51°20.298 2°51.341 11.2 342 14.2 100260 43
2011-06-06 07:15:40 51°20.315 2°51.335 8.5 343 14.1 100270 42
2011-06-06 07:15:45 51°20.332 2°51.329 12.8 342 14.1 100270 42
2011-06-06 07:15:50 51°20.348 2°51.323 11.8 342 14.1 100270 43
2011-06-06 07:15:55 51°20.365 2°51.316 12.4 283 14.1 100270 43
2011-06-06 07:15:59 51°20.379 2°51.311 11.3 343 14.1 100250 42
2011-06-06 07:16:05 51°20.399 2°51.303 11.2 343 14.1 100250 42
2011-06-06 07:16:10 51°20.416 2°51.297 10.6 343 14.1 100240 43
2011-06-06 07:16:15 51°20.433 2°51.291 13.1 343 14.1 100240 43
2011-06-06 07:16:20 51°20.45 2°51.285 12.9 344 14.1 100250 44
2011-06-06 07:16:25 51°20.467 2°51.278 12.9 343 14.1 100250 44
2011-06-06 07:16:30 51°20.484 2°51.272 10.7 344 14.1 100270 43
2011-06-06 07:16:35 51°20.501 2°51.266 11.1 343 14.1 100270 43
2011-06-06 07:16:40 51°20.518 2°51.26 12.7 344 14.1 100270 42
2011-06-06 07:16:45 51°20.535 2°51.254 9.3 343 14.1 100270 42
2011-06-06 07:16:51 51°20.556 2°51.246 10.5 344 14.1 100260 43
2011-06-06 07:16:55 51°20.569 2°51.241 12.2 344 14.1 100260 43
2011-06-06 07:17:00 51°20.586 2°51.234 9.5 344 14.1 100260 43
2011-06-06 07:17:05 51°20.603 2°51.227 10.4 343 14.1 100260 43
2011-06-06 07:17:10 51°20.62 2°51.22 10.4 344 14.1 100260 41
2011-06-06 07:17:15 51°20.637 2°51.212 10.3 344 14.1 100260 41
2011-06-06 07:17:19 51°20.65 2°51.206 10.1 343 14.1 100260 43
2011-06-06 07:17:25 51°20.67 2°51.196 9.8 343 14.1 100260 43
2011-06-06 07:17:30 51°20.687 2°51.188 12.2 344 14.1 100270 42
2011-06-06 07:17:35 51°20.704 2°51.18 12.8 344 14.1 100270 42
2011-06-06 07:17:40 51°20.721 2°51.172 9.8 344 14.1 100270 43
2011-06-06 07:17:45 51°20.738 2°51.164 12.6 345 14.1 100270 43
2011-06-06 07:17:50 51°20.755 2°51.156 11.9 344 14.1 100260 43
2011-06-06 07:17:55 51°20.772 2°51.148 12.7 278 14.1 100260 43
2011-06-06 07:18:00 51°20.789 2°51.141 11.1 345 14.1 100260 42
2011-06-06 07:18:05 51°20.806 2°51.133 13.5 344 14.1 100260 42
2011-06-06 07:18:10 51°20.823 2°51.125 11.8 344 14.1 100270 43
2011-06-06 07:18:15 51°20.84 2°51.118 11.5 344 14.1 100270 43
2011-06-06 07:18:19 51°20.853 2°51.112 11.7 344 14.1 100260 43
2011-06-06 07:18:25 51°20.874 2°51.104 13.2 344 14.1 100260 43
2011-06-06 07:18:30 51°20.891 2°51.098 10 344 14.1 100280 43
2011-06-06 07:18:35 51°20.908 2°51.092 9.3 344 14.1 100280 43
2011-06-06 07:18:40 51°20.925 2°51.086 10.9 340 14.1 100260 42
2011-06-06 07:18:45 51°20.943 2°51.08 10.5 342 14.1 100260 42
2011-06-06 07:18:50 51°20.96 2°51.074 10.8 343 14.1 100260 43
2011-06-06 07:18:55 51°20.977 2°51.068 12.3 343 14.1 100260 43
2011-06-06 07:19:00 51°20.994 2°51.063 10.1 340 14.1 100260 43
2011-06-06 07:19:05 51°21.011 2°51.057 12.1 341 14.1 100260 43
2011-06-06 07:19:10 51°21.028 2°51.051 11.7 342 14.1 100260 43
2011-06-06 07:19:15 51°21.045 2°51.045 12.2 342 14.1 100260 43
2011-06-06 07:19:19 51°21.058 2°51.04 11.1 344 14.1 100260 43
2011-06-06 07:19:25 51°21.079 2°51.032 12.8 345 14.1 100260 43
2011-06-06 07:19:30 51°21.096 2°51.025 12.4 344 14.1 100270 43
2011-06-06 07:19:35 51°21.113 2°51.018 9.1 345 14.1 100270 43
2011-06-06 07:19:40 51°21.129 2°51.01 10.2 343 14.1 100260 43
2011-06-06 07:19:45 51°21.146 2°51.002 12.4 345 14.1 100260 43
2011-06-06 07:19:50 51°21.163 2°50.994 11 344 14.1 100260 42
2011-06-06 07:19:55 51°21.18 2°50.986 12.3 281 14.1 100260 42
2011-06-06 07:20:00 51°21.197 2°50.978 12.8 345 14.1 100260 43
2011-06-06 07:20:05 51°21.214 2°50.97 5.8 344 14.1 100260 43
2011-06-06 07:20:10 51°21.231 2°50.962 10.8 344 14.1 100270 43
2011-06-06 07:20:15 51°21.248 2°50.955 9.8 344 14.1 100270 43
2011-06-06 07:20:20 51°21.265 2°50.948 11.9 345 14.1 100260 42
2011-06-06 07:20:25 51°21.282 2°50.94 12 345 14.1 100260 42
2011-06-06 07:20:30 51°21.299 2°50.934 11.9 343 14.1 100260 43
2011-06-06 07:20:35 51°21.316 2°50.928 12.6 344 14.1 100260 43
2011-06-06 07:20:39 51°21.33 2°50.923 9.2 344 14.1 100260 42
2011-06-06 07:20:45 51°21.351 2°50.916 10 342 14.1 100260 42
2011-06-06 07:20:50 51°21.368 2°50.91 12 342 14.1 100270 43
2011-06-06 07:20:55 51°21.386 2°50.904 9.5 343 14.1 100270 43
2011-06-06 07:21:00 51°21.403 2°50.899 12.2 340 14 100260 43
2011-06-06 07:21:05 51°21.421 2°50.894 10.5 340 14 100260 43
2011-06-06 07:21:10 51°21.438 2°50.888 11.4 341 14.1 100260 43
2011-06-06 07:21:15 51°21.456 2°50.882 12.4 342 14.1 100260 43
2011-06-06 07:21:20 51°21.473 2°50.876 12.3 343 14.1 100260 43
2011-06-06 07:21:25 51°21.49 2°50.871 10.2 343 14.1 100260 43
2011-06-06 07:21:30 51°21.507 2°50.865 10.2 343 14.1 100270 43
2011-06-06 07:21:35 51°21.525 2°50.859 10.8 342 14.1 100270 43
2011-06-06 07:21:39 51°21.539 2°50.855 12.8 343 14.1 100270 43
2011-06-06 07:21:45 51°21.56 2°50.848 12.6 342 14.1 100270 43
2011-06-06 07:21:50 51°21.577 2°50.841 13.5 341 14.1 100260 43
2011-06-06 07:21:55 51°21.594 2°50.835 13 282 14.1 100260 43
2011-06-06 07:22:00 51°21.612 2°50.828 13.1 342 14.1 100280 43
2011-06-06 07:22:05 51°21.63 2°50.82 10.1 344 14.1 100280 43
2011-06-06 07:22:10 51°21.647 2°50.813 12.3 343 14.1 100270 43
2011-06-06 07:22:15 51°21.665 2°50.805 13.1 343 14.1 100270 43
2011-06-06 07:22:20 51°21.682 2°50.798 10.4 343 14 100270 43
2011-06-06 07:22:25 51°21.699 2°50.79 10.3 344 14 100270 43
2011-06-06 07:22:30 51°21.717 2°50.783 10.4 344 14 100280 41
2011-06-06 07:22:35 51°21.734 2°50.775 10.8 344 14 100280 41
2011-06-06 07:22:39 51°21.748 2°50.77 10.2 346 14 100270 42
2011-06-06 07:22:45 51°21.77 2°50.761 10 342 14 100270 42
2011-06-06 07:22:50 51°21.787 2°50.754 12.7 343 14 100270 43
2011-06-06 07:22:55 51°21.804 2°50.748 12.6 346 14 100270 43
2011-06-06 07:23:00 51°21.822 2°50.741 10.1 342 14 100260 43
2011-06-06 07:23:05 51°21.839 2°50.735 11 342 14 100260 43
2011-06-06 07:23:10 51°21.856 2°50.729 10.6 342 14.1 100270 43
2011-06-06 07:23:15 51°21.874 2°50.724 9.6 343 14.1 100270 43
2011-06-06 07:23:20 51°21.891 2°50.718 11.8 342 14.1 100270 43
2011-06-06 07:23:25 51°21.908 2°50.712 10 340 14.1 100270 43
2011-06-06 07:23:31 51°21.929 2°50.705 10.8 341 14.1 100270 43
2011-06-06 07:23:35 51°21.943 2°50.7 10.5 340 14.1 100270 43
2011-06-06 07:23:40 51°21.96 2°50.694 14.2 343 14.1 100260 43
2011-06-06 07:23:45 51°21.977 2°50.687 10.9 344 14.1 100260 43
2011-06-06 07:23:50 51°21.995 2°50.679 10.2 344 14.1 100270 42
2011-06-06 07:23:55 51°22.011 2°50.672 11.2 279 14.1 100270 42
2011-06-06 07:23:59 51°22.025 2°50.665 9.1 346 14.1 100270 43
2011-06-06 07:24:05 51°22.046 2°50.656 12.1 344 14.1 100270 43
2011-06-06 07:24:10 51°22.063 2°50.648 10.3 344 14.1 100260 43
2011-06-06 07:24:15 51°22.08 2°50.64 9.5 345 14.1 100260 43
2011-06-06 07:24:20 51°22.097 2°50.633 11.3 344 14.1 100280 42
2011-06-06 07:24:25 51°22.114 2°50.625 12.4 344 14.1 100280 42
2011-06-06 07:24:30 51°22.131 2°50.617 9.7 345 14.1 100260 43
2011-06-06 07:24:35 51°22.148 2°50.61 8.7 345 14.1 100260 43
2011-06-06 07:24:40 51°22.165 2°50.602 11.9 343 14.1 100270 43
2011-06-06 07:24:45 51°22.182 2°50.595 8.2 344 14.1 100270 43
2011-06-06 07:24:50 51°22.198 2°50.589 9 344 14 100280 42
2011-06-06 07:24:55 51°22.215 2°50.583 9.7 343 14 100280 42
2011-06-06 07:24:59 51°22.229 2°50.578 12.5 343 14 100260 43
2011-06-06 07:25:05 51°22.249 2°50.571 10.2 341 14 100260 43
2011-06-06 07:25:10 51°22.265 2°50.564 14.8 342 14 100250 42
2011-06-06 07:25:15 51°22.283 2°50.558 4.9 343 14 100250 42
2011-06-06 07:25:20 51°22.299 2°50.552 12 342 14 100280 43
2011-06-06 07:25:25 51°22.317 2°50.545 12.1 342 14 100280 43
2011-06-06 07:25:30 51°22.334 2°50.539 12 340 14 100270 43
2011-06-06 07:25:35 51°22.351 2°50.533 10.5 342 14 100270 43
2011-06-06 07:25:40 51°22.368 2°50.527 11.6 342 14 100270 43
2011-06-06 07:25:45 51°22.385 2°50.521 12.3 340 14 100270 43
2011-06-06 07:25:50 51°22.403 2°50.515 11.9 342 14 100270 43
2011-06-06 07:25:55 51°22.42 2°50.51 11.2 283 14 100270 43
2011-06-06 07:25:59 51°22.434 2°50.505 11.3 342 14 100270 43
2011-06-06 07:26:05 51°22.455 2°50.499 12.7 342 14 100270 43
2011-06-06 07:26:10 51°22.473 2°50.493 5.7 342 14 100260 43
2011-06-06 07:26:15 51°22.49 2°50.488 9 342 14 100260 43
2011-06-06 07:26:20 51°22.507 2°50.482 12.1 342 14 100270 43
2011-06-06 07:26:25 51°22.524 2°50.476 11.4 343 14 100270 43
2011-06-06 07:26:30 51°22.541 2°50.469 12.4 343 14 100270 43
2011-06-06 07:26:35 51°22.558 2°50.463 12.8 344 14 100270 43
2011-06-06 07:26:40 51°22.575 2°50.456 9.8 345 14 100260 43
2011-06-06 07:26:45 51°22.592 2°50.449 9.8 345 14 100260 43
2011-06-06 07:26:50 51°22.608 2°50.441 11.6 346 14 100280 42
2011-06-06 07:26:55 51°22.625 2°50.433 12.7 345 14 100280 42
2011-06-06 07:27:00 51°22.641 2°50.426 10.2 343 14 100260 43
2011-06-06 07:27:05 51°22.658 2°50.417 9.1 345 14 100260 43
2011-06-06 07:27:10 51°22.674 2°50.41 9.3 343 14 100260 43
2011-06-06 07:27:15 51°22.691 2°50.402 10.2 344 14 100260 43
2011-06-06 07:27:19 51°22.705 2°50.397 9.6 343 14 100270 43
2011-06-06 07:27:25 51°22.725 2°50.389 11 344 14 100270 43
2011-06-06 07:27:30 51°22.742 2°50.382 8.5 343 14 100270 42
2011-06-06 07:27:35 51°22.759 2°50.375 10.3 343 14 100270 42
2011-06-06 07:27:40 51°22.776 2°50.368 13.3 344 14 100270 43
2011-06-06 07:27:45 51°22.793 2°50.361 9.4 344 14 100270 43
2011-06-06 07:27:50 51°22.81 2°50.354 11.3 342 14 100280 42
2011-06-06 07:27:55 51°22.827 2°50.347 12.4 281 14 100280 42
2011-06-06 07:28:00 51°22.844 2°50.34 12.9 346 14 100260 43
2011-06-06 07:28:05 51°22.861 2°50.333 10.7 345 14 100260 43
2011-06-06 07:28:10 51°22.877 2°50.326 11.3 346 14 100270 43
2011-06-06 07:28:15 51°22.894 2°50.318 10.2 346 14 100270 43
2011-06-06 07:28:19 51°22.908 2°50.313 9.7 345 14 100270 42
2011-06-06 07:28:25 51°22.928 2°50.304 11.9 345 14 100270 42
2011-06-06 07:28:30 51°22.945 2°50.297 12.6 344 13.9 100260 43
2011-06-06 07:28:35 51°22.962 2°50.29 12.7 343 13.9 100260 43
2011-06-06 07:28:40 51°22.98 2°50.283 10.7 345 14 100260 43
2011-06-06 07:28:45 51°22.997 2°50.277 9.4 344 14 100260 43
2011-06-06 07:28:50 51°23.014 2°50.271 11.8 344 14 100260 42
2011-06-06 07:28:55 51°23.031 2°50.264 9.8 344 14 100260 42
2011-06-06 07:29:00 51°23.048 2°50.257 9.3 343 14 100260 43
2011-06-06 07:29:05 51°23.065 2°50.25 11.4 343 14 100260 43
2011-06-06 07:29:10 51°23.082 2°50.243 9.8 343 14 100270 43
2011-06-06 07:29:15 51°23.1 2°50.237 12.4 343 14 100270 43
2011-06-06 07:29:20 51°23.117 2°50.23 8.9 344 14 100270 42
2011-06-06 07:29:25 51°23.134 2°50.223 13 342 14 100270 42
2011-06-06 07:29:30 51°23.151 2°50.217 11.1 342 14 100270 43
2011-06-06 07:29:35 51°23.168 2°50.211 12.2 343 14 100270 43
2011-06-06 07:29:40 51°23.185 2°50.206 13.2 342 14 100260 42
2011-06-06 07:29:45 51°23.202 2°50.2 9.7 341 14 100260 42
2011-06-06 07:29:50 51°23.22 2°50.195 9 341 13.9 100280 43
2011-06-06 07:29:55 51°23.237 2°50.19 10.2 282 13.9 100280 43
2011-06-06 07:30:00 51°23.254 2°50.184 12.5 343 14 100270 43
2011-06-06 07:30:05 51°23.271 2°50.179 10.8 342 14 100270 43
2011-06-06 07:30:10 51°23.288 2°50.172 13.8 343 14 100260 42
2011-06-06 07:30:15 51°23.305 2°50.166 11.2 344 14 100260 42
2011-06-06 07:30:20 51°23.322 2°50.159 5.8 344 14 100270 43
2011-06-06 07:30:25 51°23.339 2°50.153 9.8 343 14 100270 43
2011-06-06 07:30:30 51°23.357 2°50.145 12.4 345 13.9 100270 41
2011-06-06 07:30:35 51°23.374 2°50.138 11.7 344 13.9 100270 41
2011-06-06 07:30:40 51°23.391 2°50.13 9.7 344 14 100260 43
2011-06-06 07:30:45 51°23.407 2°50.122 9.6 345 14 100260 43
2011-06-06 07:30:50 51°23.424 2°50.114 10.7 345 13.9 100260 42
2011-06-06 07:30:55 51°23.441 2°50.106 13.5 345 13.9 100260 42
2011-06-06 07:30:59 51°23.455 2°50.1 11.8 345 13.9 100260 43
2011-06-06 07:31:05 51°23.475 2°50.091 13.1 345 13.9 100260 43
2011-06-06 07:31:10 51°23.492 2°50.083 10.6 344 13.9 100270 43
2011-06-06 07:31:15 51°23.509 2°50.075 10.6 345 13.9 100270 43
2011-06-06 07:31:20 51°23.526 2°50.068 12.2 346 13.9 100270 43
2011-06-06 07:31:25 51°23.543 2°50.061 10.4 345 13.9 100270 43
2011-06-06 07:31:30 51°23.56 2°50.054 9.4 342 13.9 100270 43
2011-06-06 07:31:35 51°23.577 2°50.048 12 344 13.9 100270 43
2011-06-06 07:31:40 51°23.594 2°50.041 13 345 13.9 100270 43
2011-06-06 07:31:46 51°23.615 2°50.034 10.9 345 13.9 100270 43
2011-06-06 07:31:50 51°23.629 2°50.029 10.7 345 13.9 100260 42
2011-06-06 07:31:55 51°23.646 2°50.023 11 282 13.9 100260 42
2011-06-06 07:32:00 51°23.663 2°50.018 10.2 344 13.9 100270 43
2011-06-06 07:32:05 51°23.679 2°50.013 12.5 344 13.9 100270 43
2011-06-06 07:32:10 51°23.697 2°50.007 10.3 345 13.9 100260 43
2011-06-06 07:32:15 51°23.714 2°50.002 10.5 344 13.9 100260 43
2011-06-06 07:32:20 51°23.731 2°49.996 10 345 13.9 100270 43
2011-06-06 07:32:25 51°23.748 2°49.99 11.6 343 13.9 100270 43
2011-06-06 07:32:30 51°23.765 2°49.984 11.6 344 13.9 100270 43
2011-06-06 07:32:35 51°23.781 2°49.977 11.8 345 13.9 100270 43
2011-06-06 07:32:40 51°23.798 2°49.971 10.3 343 13.9 100270 43
2011-06-06 07:32:45 51°23.815 2°49.964 9.8 344 13.9 100270 43
2011-06-06 07:32:51 51°23.835 2°49.956 13.2 344 13.9 100270 43
2011-06-06 07:32:55 51°23.849 2°49.951 10.7 344 13.9 100270 43
2011-06-06 07:33:00 51°23.866 2°49.944 9.4 343 13.9 100270 43
2011-06-06 07:33:05 51°23.883 2°49.937 9.7 343 13.9 100270 43
2011-06-06 07:33:10 51°23.9 2°49.929 9.4 343 13.9 100270 42
2011-06-06 07:33:15 51°23.917 2°49.922 12.7 345 13.9 100270 42
2011-06-06 07:33:20 51°23.933 2°49.914 9.7 344 13.9 100270 43
2011-06-06 07:33:25 51°23.95 2°49.906 11.9 342 13.9 100270 43
2011-06-06 07:33:30 51°23.966 2°49.898 12 341 13.9 100270 43
2011-06-06 07:33:35 51°23.983 2°49.89 10.9 343 13.9 100270 43
2011-06-06 07:33:39 51°23.996 2°49.884 10.3 343 13.9 100280 43
2011-06-06 07:33:45 51°24.016 2°49.874 9.8 345 13.9 100280 43
2011-06-06 07:33:50 51°24.033 2°49.866 13.3 346 13.9 100270 43
2011-06-06 07:33:55 51°24.049 2°49.859 12.7 284 13.9 100270 43
2011-06-06 07:34:00 51°24.066 2°49.851 11.8 344 13.9 100270 43
2011-06-06 07:34:05 51°24.083 2°49.844 13.9 344 13.9 100270 43
2011-06-06 07:34:10 51°24.1 2°49.837 12.1 343 13.9 100270 43
2011-06-06 07:34:15 51°24.117 2°49.829 10.2 342 13.9 100270 43
2011-06-06 07:34:20 51°24.134 2°49.822 10.4 342 13.9 100260 43
2011-06-06 07:34:26 51°24.154 2°49.813 5.6 344 13.9 100260 43
2011-06-06 07:34:30 51°24.167 2°49.808 10.4 343 13.9 100280 42
2011-06-06 07:34:35 51°24.184 2°49.801 10.4 343 13.9 100280 42
2011-06-06 07:34:40 51°24.201 2°49.794 12.9 343 13.9 100260 42
2011-06-06 07:34:45 51°24.218 2°49.786 13.4 343 13.9 100260 42
2011-06-06 07:34:50 51°24.235 2°49.78 12.4 343 13.9 100270 43
2011-06-06 07:34:55 51°24.252 2°49.773 10.3 343 13.9 100270 43
2011-06-06 07:35:00 51°24.27 2°49.766 13.7 344 13.9 100280 42
2011-06-06 07:35:05 51°24.287 2°49.76 12.2 344 13.9 100280 42
2011-06-06 07:35:10 51°24.304 2°49.753 10.1 344 13.9 100280 43
2011-06-06 07:35:15 51°24.321 2°49.747 11.9 343 13.9 100280 43
2011-06-06 07:35:20 51°24.338 2°49.74 14.1 342 13.9 100280 43
2011-06-06 07:35:25 51°24.355 2°49.734 10.3 343 13.9 100280 43
2011-06-06 07:35:30 51°24.372 2°49.727 11.5 344 13.9 100270 42
2011-06-06 07:35:35 51°24.389 2°49.721 11.8 344 13.9 100270 42
2011-06-06 07:35:40 51°24.406 2°49.714 10.7 344 13.9 100270 43
2011-06-06 07:35:45 51°24.423 2°49.708 9.7 342 13.9 100270 43
2011-06-06 07:35:50 51°24.44 2°49.702 10.1 343 13.9 100270 41
2011-06-06 07:35:55 51°24.458 2°49.695 10.9 282 13.9 100270 41
2011-06-06 07:36:00 51°24.474 2°49.689 10.5 342 13.9 100260 43
2011-06-06 07:36:05 51°24.491 2°49.683 10.3 343 13.9 100260 43
2011-06-06 07:36:10 51°24.508 2°49.677 10 343 13.9 100280 43
2011-06-06 07:36:15 51°24.525 2°49.67 12.3 344 13.9 100280 43
2011-06-06 07:36:19 51°24.538 2°49.665 10.2 342 13.9 100270 43
2011-06-06 07:36:25 51°24.558 2°49.658 9.3 343 13.9 100270 43
2011-06-06 07:36:30 51°24.575 2°49.651 12.2 343 13.9 100280 43
2011-06-06 07:36:35 51°24.592 2°49.644 10.3 341 13.9 100280 43
2011-06-06 07:36:40 51°24.609 2°49.637 10.4 343 13.9 100280 43
2011-06-06 07:36:45 51°24.626 2°49.631 12.3 342 13.9 100280 43
2011-06-06 07:36:50 51°24.642 2°49.624 11.4 343 13.9 100270 42
2011-06-06 07:36:55 51°24.66 2°49.617 13.1 343 13.9 100270 42
2011-06-06 07:37:00 51°24.676 2°49.611 9.6 344 13.9 100260 42
2011-06-06 07:37:05 51°24.693 2°49.603 10.8 345 13.9 100260 42
2011-06-06 07:37:11 51°24.713 2°49.594 12.2 345 13.8 100270 43
2011-06-06 07:37:15 51°24.726 2°49.589 13.4 345 13.8 100270 43
2011-06-06 07:37:20 51°24.743 2°49.581 10.1 344 13.8 100270 42
2011-06-06 07:37:25 51°24.76 2°49.573 10.8 346 13.8 100270 42
2011-06-06 07:37:30 51°24.777 2°49.566 8.5 346 13.8 100280 43
2011-06-06 07:37:35 51°24.794 2°49.557 12.4 343 13.8 100280 43
2011-06-06 07:37:40 51°24.811 2°49.549 13.4 344 13.8 100270 43
2011-06-06 07:37:45 51°24.828 2°49.541 13 344 13.8 100270 43
2011-06-06 07:37:50 51°24.845 2°49.533 12.2 345 13.8 100270 43
2011-06-06 07:37:55 51°24.862 2°49.525 11.7 281 13.8 100270 43
2011-06-06 07:38:00 51°24.879 2°49.517 9.5 345 13.8 100270 43
2011-06-06 07:38:05 51°24.896 2°49.509 10.6 342 13.8 100270 43
2011-06-06 07:38:10 51°24.912 2°49.5 13 344 13.8 100270 42
2011-06-06 07:38:15 51°24.929 2°49.492 12.2 343 13.8 100270 42
2011-06-06 07:38:20 51°24.946 2°49.484 12.8 342 13.8 100270 43
2011-06-06 07:38:26 51°24.967 2°49.474 11.3 342 13.8 100270 43
2011-06-06 07:38:30 51°24.98 2°49.468 12.5 343 13.8 100280 42
2011-06-06 07:38:35 51°24.997 2°49.46 11.5 342 13.8 100280 42
2011-06-06 07:38:40 51°25.014 2°49.451 14 341 13.8 100280 43
2011-06-06 07:38:45 51°25.031 2°49.443 10 343 13.8 100280 43
2011-06-06 07:38:50 51°25.047 2°49.435 10.6 342 13.8 100280 42
2011-06-06 07:38:55 51°25.064 2°49.427 12.2 341 13.8 100280 42
2011-06-06 07:38:59 51°25.078 2°49.421 12.8 341 13.8 100290 43
2011-06-06 07:39:05 51°25.098 2°49.411 10.8 341 13.8 100290 43
2011-06-06 07:39:10 51°25.116 2°49.404 9.9 340 13.8 100270 42
2011-06-06 07:39:15 51°25.133 2°49.396 12.8 340 13.8 100270 42
2011-06-06 07:39:20 51°25.15 2°49.389 11.1 341 13.8 100280 42
2011-06-06 07:39:25 51°25.167 2°49.382 10.7 342 13.8 100280 42
2011-06-06 07:39:31 51°25.187 2°49.374 11.8 340 13.8 100270 42
2011-06-06 07:39:35 51°25.201 2°49.368 10.8 339 13.8 100270 42
2011-06-06 07:39:40 51°25.218 2°49.361 10.1 340 13.8 100280 43
2011-06-06 07:39:45 51°25.235 2°49.355 13.5 341 13.8 100280 43
2011-06-06 07:39:50 51°25.253 2°49.348 10.8 343 13.8 100280 43
2011-06-06 07:39:55 51°25.27 2°49.342 12.1 284 13.8 100280 43
2011-06-06 07:39:59 51°25.283 2°49.337 12 343 13.9 100280 43
2011-06-06 07:40:05 51°25.304 2°49.329 11.4 342 13.9 100280 43
2011-06-06 07:40:10 51°25.321 2°49.322 13.1 341 13.9 100280 42
2011-06-06 07:40:15 51°25.338 2°49.316 6.1 343 13.9 100280 42
2011-06-06 07:40:20 51°25.355 2°49.309 11.1 342 13.9 100270 43
2011-06-06 07:40:25 51°25.372 2°49.302 10.4 342 13.9 100270 43
2011-06-06 07:40:30 51°25.389 2°49.295 11.4 343 13.9 100270 43
2011-06-06 07:40:35 51°25.406 2°49.287 12.4 343 13.9 100270 43
2011-06-06 07:40:40 51°25.423 2°49.281 10.1 342 13.9 100290 43
2011-06-06 07:40:46 51°25.443 2°49.273 13.5 342 13.9 100290 43
2011-06-06 07:40:50 51°25.457 2°49.267 11.1 342 13.8 100290 43
2011-06-06 07:40:55 51°25.474 2°49.26 12.4 344 13.8 100290 43
2011-06-06 07:41:00 51°25.49 2°49.253 11.7 343 13.8 100270 43
2011-06-06 07:41:05 51°25.507 2°49.245 10.1 345 13.8 100270 43
2011-06-06 07:41:10 51°25.524 2°49.237 10.9 344 13.8 100280 41
2011-06-06 07:41:15 51°25.54 2°49.226 10.6 345 13.8 100280 41
2011-06-06 07:41:20 51°25.556 2°49.213 12.2 347 13.8 100290 43
2011-06-06 07:41:25 51°25.571 2°49.198 11.4 348 13.8 100290 43
2011-06-06 07:41:30 51°25.587 2°49.183 8.8 347 13.8 100290 43
2011-06-06 07:41:35 51°25.601 2°49.166 8.8 347 13.8 100290 43
2011-06-06 07:41:40 51°25.615 2°49.149 12.4 349 13.8 100280 43
2011-06-06 07:41:45 51°25.629 2°49.13 12.6 350 13.8 100280 43
2011-06-06 07:41:50 51°25.644 2°49.112 10.5 350 13.8 100270 42
2011-06-06 07:41:55 51°25.657 2°49.092 8.6 350 13.8 100270 42
2011-06-06 07:42:00 51°25.671 2°49.072 11 349 13.8 100280 43
2011-06-06 07:42:05 51°25.683 2°49.051 8.3 351 13.8 100280 43
2011-06-06 07:42:10 51°25.697 2°49.031 11.4 352 13.8 100270 42
2011-06-06 07:42:15 51°25.709 2°49.01 9.9 352 13.8 100270 42
2011-06-06 07:42:20 51°25.722 2°48.989 9.7 349 13.8 100280 43
2011-06-06 07:42:25 51°25.735 2°48.968 10.4 352 13.8 100280 43
2011-06-06 07:42:30 51°25.747 2°48.947 10.4 351 13.8 100270 43
2011-06-06 07:42:35 51°25.76 2°48.927 10 353 13.8 100270 43
2011-06-06 07:42:40 51°25.772 2°48.907 8.4 352 13.7 100280 43
2011-06-06 07:42:45 51°25.784 2°48.887 8.9 355 13.7 100280 43
2011-06-06 07:42:50 51°25.796 2°48.868 9.9 354 13.7 100280 43
2011-06-06 07:42:55 51°25.807 2°48.849 8.9 353 13.7 100280 43
2011-06-06 07:43:00 51°25.819 2°48.831 8.3 351 13.7 100280 42
2011-06-06 07:43:05 51°25.831 2°48.812 11.1 354 13.7 100280 42
2011-06-06 07:43:10 51°25.842 2°48.794 11.7 355 13.7 100270 43
2011-06-06 07:43:15 51°25.854 2°48.775 8.7 356 13.7 100270 43
2011-06-06 07:43:20 51°25.866 2°48.757 7.8 352 13.7 100280 43
2011-06-06 07:43:25 51°25.877 2°48.739 10.4 353 13.7 100280 43
2011-06-06 07:43:30 51°25.887 2°48.723 8.9 355 13.7 100280 42
2011-06-06 07:43:35 51°25.897 2°48.706 7.6 356 13.7 100280 42
2011-06-06 07:43:40 51°25.907 2°48.691 10 354 13.7 100280 43
2011-06-06 07:43:45 51°25.917 2°48.675 7.5 354 13.7 100280 43
2011-06-06 07:43:51 51°25.927 2°48.658 7.7 357 13.7 100290 42
2011-06-06 07:43:55 51°25.934 2°48.647 10.4 355 13.7 100290 42
2011-06-06 07:44:00 51°25.942 2°48.634 8.8 356 13.7 100280 43
2011-06-06 07:44:05 51°25.95 2°48.622 7.4 356 13.7 100280 43
2011-06-06 07:44:10 51°25.957 2°48.61 6.9 356 13.7 100270 43
2011-06-06 07:44:15 51°25.964 2°48.599 7 357 13.7 100270 43
2011-06-06 07:44:19 51°25.969 2°48.59 7.7 359 13.7 100290 43
2011-06-06 07:44:25 51°25.977 2°48.578 6.5 358 13.7 100290 43
2011-06-06 07:44:30 51°25.984 2°48.568 6.6 359 13.7 100290 43
2011-06-06 07:44:35 51°25.99 2°48.559 6.5 356 13.7 100290 43
2011-06-06 07:44:40 51°25.996 2°48.55 8.9 359 13.7 100290 43
2011-06-06 07:44:45 51°26.002 2°48.542 8.7 359 13.7 100290 43
2011-06-06 07:44:50 51°26.007 2°48.534 9.5 358 13.7 100280 42
2011-06-06 07:44:55 51°26.012 2°48.526 7 358 13.7 100280 42
2011-06-06 07:45:00 51°26.017 2°48.519 9.7 357 13.7 100290 42
2011-06-06 07:45:06 51°26.023 2°48.51 7.4 355 13.7 100290 42
2011-06-06 07:45:10 51°26.027 2°48.504 7.6 352 13.7 100290 43
2011-06-06 07:45:15 51°26.032 2°48.499 7.8 348 13.7 100290 43
2011-06-06 07:45:20 51°26.037 2°48.494 7.1 347 13.7 100280 42
2011-06-06 07:45:25 51°26.043 2°48.49 7.5 344 13.7 100280 42
2011-06-06 07:45:30 51°26.048 2°48.488 9.1 342 13.7 100280 42
2011-06-06 07:45:35 51°26.053 2°48.486 7.1 338 13.7 100280 42
2011-06-06 07:45:40 51°26.058 2°48.485 8.3 337 13.7 100290 42
2011-06-06 07:45:45 51°26.064 2°48.485 7.1 333 13.7 100290 42
2011-06-06 07:45:50 51°26.068 2°48.486 7.5 332 13.7 100300 42
2011-06-06 07:45:55 51°26.073 2°48.488 8 280 13.7 100300 42
2011-06-06 07:46:00 51°26.077 2°48.491 9.5 327 13.7 100290 43
2011-06-06 07:46:05 51°26.081 2°48.495 9.4 302 13.7 100290 43
2011-06-06 07:46:10 51°26.084 2°48.499 6.5 319 13.7 100290 42
2011-06-06 07:46:15 51°26.086 2°48.503 6.4 308 13.7 100290 42
2011-06-06 07:46:20 51°26.088 2°48.508 6.8 20 13.7 100290 43
2011-06-06 07:46:25 51°26.09 2°48.512 8.9 304 13.7 100290 43
2011-06-06 07:46:30 51°26.091 2°48.516 8 24 13.7 100290 41
2011-06-06 07:46:35 51°26.092 2°48.52 6.3 305 13.7 100290 41
2011-06-06 07:46:40 51°26.092 2°48.523 7 24 13.7 100290 42
2011-06-06 07:46:45 51°26.092 2°48.526 7.1 301 13.7 100290 42
2011-06-06 07:46:50 51°26.093 2°48.528 7.6 21 13.7 100280 42
2011-06-06 07:46:55 51°26.092 2°48.529 7.2 304 13.7 100280 42
2011-06-06 07:46:59 51°26.093 2°48.529 6.3 19 13.7 100290 43
2011-06-06 07:47:05 51°26.092 2°48.529 7.2 305 13.7 100290 43
2011-06-06 07:47:10 51°26.092 2°48.529 6.1 23 13.7 100280 42
2011-06-06 07:47:15 51°26.091 2°48.529 6 305 13.7 100280 42
2011-06-06 07:47:20 51°26.091 2°48.528 7.3 26 13.7 100290 43
2011-06-06 07:47:26 51°26.09 2°48.528 6 305 13.7 100290 43
2011-06-06 07:47:30 51°26.089 2°48.528 7.7 21 13.7 100290 43
2011-06-06 07:47:35 51°26.089 2°48.528 6.8 304 13.7 100290 43
2011-06-06 07:47:40 51°26.088 2°48.527 5.8 22 13.7 100300 43
2011-06-06 07:47:45 51°26.088 2°48.527 4.7 304 13.7 100300 43
2011-06-06 07:47:50 51°26.086 2°48.526 7.1 250 13.7 100290 42
2011-06-06 07:47:55 51°26.086 2°48.525 7.6 284 13.7 100290 42
2011-06-06 07:47:59 51°26.085 2°48.525 6.5 252 13.7 100290 42
2011-06-06 07:48:05 51°26.084 2°48.524 5.7 282 13.7 100290 42
2011-06-06 07:48:10 51°26.083 2°48.523 6.6 252 13.7 100300 42
2011-06-06 07:48:15 51°26.082 2°48.523 5.7 309 13.7 100300 42
2011-06-06 07:48:20 51°26.081 2°48.522 6.5 251 13.7 100290 42
2011-06-06 07:48:25 51°26.08 2°48.521 6.3 282 13.7 100290 42
2011-06-06 07:48:31 51°26.079 2°48.521 6.1 21 13.7 100300 42
2011-06-06 07:48:35 51°26.079 2°48.52 6 304 13.7 100300 42
2011-06-06 07:48:40 51°26.078 2°48.519 5.8 249 13.7 100300 42
2011-06-06 07:48:45 51°26.077 2°48.518 6.3 306 13.7 100300 42
2011-06-06 07:48:50 51°26.076 2°48.518 5.1 19 13.7 100300 43
2011-06-06 07:48:55 51°26.075 2°48.516 4.8 308 13.7 100300 43
2011-06-06 07:49:00 51°26.074 2°48.515 5.7 250 13.7 100300 42
2011-06-06 07:49:05 51°26.074 2°48.515 6 304 13.7 100300 42
2011-06-06 07:49:10 51°26.073 2°48.513 7.4 22 13.8 100300 42
2011-06-06 07:49:15 51°26.072 2°48.513 7 302 13.8 100300 42
2011-06-06 07:49:20 51°26.071 2°48.511 7.9 21 13.8 100300 43
2011-06-06 07:49:25 51°26.07 2°48.51 7 308 13.8 100300 43
2011-06-06 07:49:30 51°26.07 2°48.51 5.6 245 13.8 100310 42
2011-06-06 07:49:35 51°26.069 2°48.508 6.8 302 13.8 100310 42
2011-06-06 07:49:40 51°26.068 2°48.507 7.3 246 13.8 100300 43
2011-06-06 07:49:45 51°26.067 2°48.506 6.7 303 13.8 100300 43
2011-06-06 07:49:50 51°26.066 2°48.504 6.5 20 13.8 100300 43
2011-06-06 07:49:55 51°26.066 2°48.503 6.4 279 13.8 100300 43
2011-06-06 07:50:00 51°26.065 2°48.502 7.1 247 13.8 100310 43
2011-06-06 07:50:05 51°26.064 2°48.501 6.3 310 13.8 100310 43
2011-06-06 07:50:10 51°26.064 2°48.499 5.4 20 13.8 100300 43
2011-06-06 07:50:15 51°26.063 2°48.498 5.4 307 13.8 100300 43
2011-06-06 07:50:20 51°26.062 2°48.497 6.1 20 13.8 100300 43
2011-06-06 07:50:25 51°26.061 2°48.495 4.9 281 13.8 100300 43
2011-06-06 07:50:30 51°26.06 2°48.494 5.3 249 13.8 100300 42
2011-06-06 07:50:35 51°26.06 2°48.493 5.8 302 13.8 100300 42
2011-06-06 07:50:40 51°26.059 2°48.492 4.5 22 13.8 100300 43
2011-06-06 07:50:45 51°26.058 2°48.49 5.8 279 13.8 100300 43
2011-06-06 07:50:50 51°26.058 2°48.489 5.7 252 13.8 100300 42
2011-06-06 07:50:55 51°26.057 2°48.487 6.3 308 13.8 100300 42
2011-06-06 07:51:00 51°26.056 2°48.486 6.2 248 13.8 100300 43
2011-06-06 07:51:05 51°26.056 2°48.485 6 306 13.8 100300 43
2011-06-06 07:51:10 51°26.055 2°48.483 5.6 251 13.8 100300 43
2011-06-06 07:51:15 51°26.054 2°48.482 5.7 304 13.8 100300 43
2011-06-06 07:51:20 51°26.053 2°48.48 5.3 249 13.9 100300 43
2011-06-06 07:51:25 51°26.053 2°48.478 5.5 307 13.9 100300 43
2011-06-06 07:51:30 51°26.052 2°48.477 5.7 23 13.8 100310 43
2011-06-06 07:51:35 51°26.051 2°48.476 5.7 304 13.8 100310 43
2011-06-06 07:51:40 51°26.05 2°48.474 5.8 250 13.9 100310 43
2011-06-06 07:51:45 51°26.05 2°48.472 5.6 307 13.9 100310 43
2011-06-06 07:51:50 51°26.049 2°48.471 5.9 249 13.9 100310 42
2011-06-06 07:51:55 51°26.048 2°48.469 5.6 278 13.9 100310 42
2011-06-06 07:51:59 51°26.048 2°48.468 5.8 247 13.9 100300 43
2011-06-06 07:52:05 51°26.046 2°48.465 5.7 310 13.9 100300 43
2011-06-06 07:52:10 51°26.046 2°48.464 5 249 13.9 100310 42
2011-06-06 07:52:15 51°26.045 2°48.463 4.5 304 13.9 100310 42
2011-06-06 07:52:20 51°26.044 2°48.461 7 248 13.9 100300 42
2011-06-06 07:52:26 51°26.043 2°48.459 5.7 305 13.9 100300 42
2011-06-06 07:52:30 51°26.043 2°48.458 5 25 13.8 100310 42
2011-06-06 07:52:35 51°26.042 2°48.455 6.3 304 13.8 100310 42
2011-06-06 07:52:40 51°26.041 2°48.454 5.7 246 13.8 100310 42
2011-06-06 07:52:45 51°26.041 2°48.452 5.7 308 13.8 100310 42
2011-06-06 07:52:50 51°26.04 2°48.45 5.6 247 13.8 100310 42
2011-06-06 07:52:55 51°26.039 2°48.449 5.5 279 13.8 100310 42
2011-06-06 07:52:59 51°26.038 2°48.447 5.4 25 13.9 100300 42
2011-06-06 07:53:05 51°26.037 2°48.445 4.3 281 13.9 100300 42
2011-06-06 07:53:10 51°26.037 2°48.444 6.1 244 13.8 100310 43
2011-06-06 07:53:15 51°26.036 2°48.442 5 305 13.8 100310 43
2011-06-06 07:53:20 51°26.035 2°48.44 5.7 21 13.8 100300 42
2011-06-06 07:53:25 51°26.034 2°48.438 1.3 306 13.8 100300 42
2011-06-06 07:53:30 51°26.033 2°48.436 1.9 252 13.8 100300 42
2011-06-06 07:53:35 51°26.032 2°48.434 2.7 307 13.8 100300 42
2011-06-06 07:53:40 51°26.031 2°48.433 0.2 253 13.8 100310 44